Time;durP1;ratioP1;P1;durP2;ratioP2;P2;SDS_P1;SDS_P2;PMS_P1;PMS_P2;Temp;Humidity;BMP_temperature;BMP_pressure;BME280_temperature;BME280_humidity;BME280_pressure;Samples;Min_cycle;Max_cycle;Signal;HPM_P1;HPM_P2
2022/07/14 00:00:27;;;;;;;2.58;1.83;;;19.50;95.60;;;;;;6125464;23;20608;-75
2022/07/14 00:02:53;;;;;;;2.28;2.08;;;19.40;95.30;;;;;;6125839;23;20149;-75
2022/07/14 00:05:19;;;;;;;1.80;1.70;;;19.40;95.60;;;;;;6125456;23;20158;-75
2022/07/14 00:07:44;;;;;;;2.58;2.33;;;19.40;96.30;;;;;;6125592;23;20181;-75
2022/07/14 00:10:10;;;;;;;3.13;2.08;;;19.40;96.70;;;;;;6125356;23;20147;-75
2022/07/14 00:12:36;;;;;;;2.17;1.92;;;19.40;97.10;;;;;;6099139;23;20153;-75
2022/07/14 00:15:01;;;;;;;4.78;2.30;;;19.30;97.40;;;;;;6125673;23;20541;-75
2022/07/14 00:17:27;;;;;;;1.77;1.60;;;19.20;98.10;;;;;;6125783;23;20156;-76
2022/07/14 00:19:53;;;;;;;3.88;1.77;;;19.20;98.30;;;;;;6125300;23;20153;-76
2022/07/14 00:22:18;;;;;;;1.95;1.85;;;19.10;98.20;;;;;;6125702;23;20178;-75
2022/07/14 00:24:44;;;;;;;2.15;1.95;;;19.10;98.30;;;;;;6125274;23;20146;-76
2022/07/14 00:27:09;;;;;;;2.72;1.75;;;19.00;98.30;;;;;;6125625;23;20166;-76
2022/07/14 00:29:36;;;;;;;4.90;2.40;;;19.00;98.50;;;;;;6124768;23;20180;-76
2022/07/14 00:32:03;;;;;;;2.63;2.42;;;19.00;99.20;;;;;;6124642;23;20184;-77
2022/07/14 00:34:28;;;;;;;3.70;2.25;;;19.10;99.40;;;;;;6125254;23;20244;-77
2022/07/14 00:36:54;;;;;;;2.67;2.20;;;19.00;99.60;;;;;;6125157;23;20182;-78
2022/07/14 00:39:20;;;;;;;2.92;2.42;;;19.00;99.90;;;;;;6123750;23;20174;-74
2022/07/14 00:41:45;;;;;;;2.20;1.90;;;19.10;99.90;;;;;;6124977;23;20241;-74
2022/07/14 00:44:11;;;;;;;3.22;1.92;;;19.10;99.90;;;;;;6124423;23;20146;-74
2022/07/14 00:46:38;;;;;;;3.47;2.20;;;19.20;99.90;;;;;;6125050;23;20146;-74
2022/07/14 00:49:04;;;;;;;2.72;1.75;;;19.10;99.90;;;;;;6122496;23;20773;-75
2022/07/14 00:51:30;;;;;;;2.17;1.60;;;19.10;99.90;;;;;;6123870;23;20173;-75
2022/07/14 00:53:56;;;;;;;2.30;1.70;;;19.10;99.90;;;;;;6125115;23;20607;-74
2022/07/14 00:56:22;;;;;;;2.35;2.10;;;19.10;99.90;;;;;;6125027;23;20153;-75
2022/07/14 00:58:48;;;;;;;1.63;1.60;;;19.20;99.90;;;;;;6123722;23;20169;-75
2022/07/14 01:01:14;;;;;;;2.30;2.20;;;19.20;99.90;;;;;;6125094;23;20264;-75
2022/07/14 01:03:40;;;;;;;2.05;1.95;;;19.30;99.90;;;;;;6125190;23;20142;-75
2022/07/14 01:06:06;;;;;;;3.38;1.98;;;19.30;99.90;;;;;;6124211;23;20165;-75
2022/07/14 01:08:31;;;;;;;2.17;2.00;;;19.30;99.90;;;;;;6124629;23;20508;-74
2022/07/14 01:10:57;;;;;;;2.03;1.85;;;19.30;99.90;;;;;;6125189;23;20265;-75
2022/07/14 01:13:22;;;;;;;4.93;1.92;;;19.30;99.90;;;;;;6124998;23;20489;-75
2022/07/14 01:15:48;;;;;;;3.92;2.00;;;19.20;99.90;;;;;;6124936;23;20150;-75
2022/07/14 01:18:14;;;;;;;1.88;1.77;;;19.20;99.90;;;;;;6125132;23;20583;-75
2022/07/14 01:20:41;;;;;;;2.58;1.85;;;19.20;99.90;;;;;;6124528;23;20170;-76
2022/07/14 01:23:07;;;;;;;2.45;2.10;;;19.10;99.90;;;;;;6124657;23;20155;-76
2022/07/14 01:25:33;;;;;;;4.43;1.95;;;19.10;99.90;;;;;;6124241;23;20676;-76
2022/07/14 01:27:59;;;;;;;2.20;1.70;;;19.00;99.90;;;;;;6125085;23;20166;-76
2022/07/14 01:30:24;;;;;;;2.45;1.80;;;19.00;99.90;;;;;;6124627;23;20489;-75
2022/07/14 01:32:50;;;;;;;2.10;1.83;;;19.00;99.90;;;;;;6124953;23;20227;-76
2022/07/14 01:35:16;;;;;;;1.80;1.70;;;19.00;99.90;;;;;;6124112;23;20157;-75
2022/07/14 01:37:41;;;;;;;2.00;1.77;;;19.00;99.90;;;;;;6124914;23;20153;-75
2022/07/14 01:40:08;;;;;;;1.88;1.77;;;18.90;99.90;;;;;;6124442;23;20591;-75
2022/07/14 01:42:34;;;;;;;2.95;1.80;;;18.90;99.90;;;;;;6123967;23;20154;-75
2022/07/14 01:45:00;;;;;;;4.72;2.03;;;18.90;99.90;;;;;;6124945;23;20230;-75
2022/07/14 01:47:25;;;;;;;2.00;1.90;;;18.90;99.90;;;;;;6124943;23;20169;-75
2022/07/14 01:49:51;;;;;;;3.13;2.05;;;18.80;99.90;;;;;;6124237;23;20237;-74
2022/07/14 01:52:16;;;;;;;2.25;2.05;;;18.80;99.90;;;;;;6124332;23;20181;-74
2022/07/14 01:54:42;;;;;;;3.53;2.10;;;18.90;99.90;;;;;;6124498;23;20155;-74
2022/07/14 01:57:08;;;;;;;2.95;2.17;;;18.80;99.90;;;;;;6124807;23;20142;-73
2022/07/14 01:59:34;;;;;;;4.20;2.22;;;18.80;99.90;;;;;;6124586;23;20154;-74
2022/07/14 02:01:59;;;;;;;2.00;1.85;;;18.70;99.90;;;;;;6123905;23;20619;-74
2022/07/14 02:04:25;;;;;;;3.30;1.70;;;18.70;99.90;;;;;;6124695;23;20150;-75
2022/07/14 02:06:55;;;;;;;1.63;1.52;;;18.70;99.90;;;;;;6124545;23;20583;-75
2022/07/14 02:09:21;;;;;;;1.90;1.83;;;18.70;99.90;;;;;;6124197;23;20173;-75
2022/07/14 02:14:33;;;;;;;4.28;2.08;;;18.70;99.90;;;;;;6124768;23;20145;-75
2022/07/14 02:16:59;;;;;;;2.58;1.90;;;18.80;99.90;;;;;;6124547;23;20204;-75
2022/07/14 02:19:25;;;;;;;2.03;1.92;;;18.90;99.90;;;;;;6124010;23;20599;-75
2022/07/14 02:21:52;;;;;;;3.35;2.00;;;18.80;99.90;;;;;;6124177;23;20177;-75
2022/07/14 02:24:20;;;;;;;3.30;2.13;;;18.80;99.90;;;;;;6124732;23;20213;-75
2022/07/14 02:26:50;;;;;;;1.95;1.85;;;18.80;99.90;;;;;;6124609;23;20166;-75
2022/07/14 02:29:16;;;;;;;1.80;1.70;;;18.80;99.90;;;;;;6123794;23;20561;-75
2022/07/14 02:31:43;;;;;;;1.83;1.73;;;18.80;99.90;;;;;;6124409;23;20249;-75
2022/07/14 02:34:08;;;;;;;1.77;1.67;;;18.70;99.90;;;;;;6124631;23;20150;-75
2022/07/14 02:36:34;;;;;;;2.25;1.45;;;18.60;99.90;;;;;;6124614;23;20157;-74
2022/07/14 02:39:00;;;;;;;1.92;1.83;;;18.60;99.90;;;;;;6123910;23;20154;-74
2022/07/14 02:41:25;;;;;;;1.60;1.50;;;18.60;99.90;;;;;;6124004;23;20170;-75
2022/07/14 02:43:51;;;;;;;1.90;1.75;;;18.50;99.90;;;;;;6124635;23;20209;-75
2022/07/14 02:46:16;;;;;;;1.90;1.80;;;18.50;99.90;;;;;;6124214;23;20615;-75
2022/07/14 02:48:42;;;;;;;1.90;1.80;;;18.40;99.90;;;;;;6124070;23;20316;-75
2022/07/14 02:51:09;;;;;;;1.70;1.60;;;18.40;99.90;;;;;;6124488;23;20174;-75
2022/07/14 02:53:36;;;;;;;3.03;1.60;;;18.30;99.90;;;;;;6124608;23;20489;-75
2022/07/14 02:56:03;;;;;;;2.10;1.80;;;18.30;99.90;;;;;;6124348;23;20602;-76
2022/07/14 02:58:29;;;;;;;1.50;1.50;;;18.30;99.90;;;;;;6124043;23;20611;-76
2022/07/14 03:00:54;;;;;;;3.90;1.60;;;18.20;99.90;;;;;;6125473;23;20170;-76
2022/07/14 03:03:21;;;;;;;1.70;1.60;;;18.20;99.90;;;;;;6126429;23;20158;-76
2022/07/14 03:05:47;;;;;;;2.35;1.50;;;18.20;99.90;;;;;;6126196;23;20161;-76
2022/07/14 03:08:13;;;;;;;1.77;1.67;;;18.10;99.90;;;;;;6123764;23;20170;-76
2022/07/14 03:10:39;;;;;;;1.48;1.48;;;18.10;99.90;;;;;;6125231;23;20297;-75
2022/07/14 03:13:06;;;;;;;1.52;1.42;;;18.20;99.90;;;;;;6126395;23;20174;-75
2022/07/14 03:15:32;;;;;;;1.77;1.60;;;18.20;99.90;;;;;;6126464;23;20544;-75
2022/07/14 03:17:58;;;;;;;2.05;1.95;;;18.20;99.90;;;;;;6126308;23;20154;-75
2022/07/14 03:20:24;;;;;;;2.28;2.08;;;18.20;99.90;;;;;;6124738;23;20620;-75
2022/07/14 03:22:49;;;;;;;2.97;1.77;;;18.20;99.90;;;;;;6100353;23;20603;-75
2022/07/14 03:25:15;;;;;;;2.40;1.80;;;18.10;99.90;;;;;;6126152;23;20189;-75
2022/07/14 03:27:41;;;;;;;1.88;1.50;;;18.20;99.90;;;;;;6126212;23;20154;-74
2022/07/14 03:30:08;;;;;;;2.28;1.95;;;18.20;99.90;;;;;;6125540;23;20151;-75
2022/07/14 03:32:34;;;;;;;2.20;2.00;;;18.10;99.90;;;;;;6126257;23;20178;-75
2022/07/14 03:35:03;;;;;;;3.22;2.22;;;18.10;99.90;;;;;;6125679;23;20154;-75
2022/07/14 03:37:29;;;;;;;3.17;1.88;;;18.10;99.90;;;;;;6125586;23;20474;-74
2022/07/14 03:39:54;;;;;;;2.22;2.10;;;18.00;99.90;;;;;;6124677;23;20259;-75
2022/07/14 03:42:20;;;;;;;2.00;1.90;;;18.10;99.90;;;;;;6125132;23;20185;-75
2022/07/14 03:44:45;;;;;;;1.98;1.88;;;18.10;99.90;;;;;;6125705;23;20158;-75
2022/07/14 03:47:11;;;;;;;2.80;2.60;;;18.10;99.90;;;;;;6124985;23;20464;-75
2022/07/14 03:49:37;;;;;;;3.03;1.77;;;18.10;99.90;;;;;;6124952;23;20174;-75
2022/07/14 03:52:03;;;;;;;3.53;2.15;;;18.10;99.90;;;;;;6124676;23;20170;-76
2022/07/14 03:54:29;;;;;;;1.67;1.60;;;18.10;99.90;;;;;;6125426;23;20487;-75
2022/07/14 03:56:55;;;;;;;2.22;2.13;;;18.10;99.90;;;;;;6125311;23;20146;-75
2022/07/14 03:59:21;;;;;;;2.13;2.03;;;18.20;99.90;;;;;;6125077;23;20154;-76
2022/07/14 04:01:46;;;;;;;2.17;1.98;;;18.10;99.90;;;;;;6124906;23;20212;-75
2022/07/14 04:04:12;;;;;;;2.72;1.85;;;18.10;99.90;;;;;;6125601;23;20154;-76
2022/07/14 04:06:38;;;;;;;1.77;1.67;;;18.00;99.90;;;;;;6125882;23;20142;-75
2022/07/14 04:09:03;;;;;;;2.00;1.90;;;18.00;99.90;;;;;;6124853;23;20477;-75
2022/07/14 04:11:29;;;;;;;2.67;1.80;;;18.00;99.90;;;;;;6124520;23;20201;-75
2022/07/14 04:13:54;;;;;;;3.03;1.90;;;18.00;99.90;;;;;;6125110;23;20139;-75
2022/07/14 04:16:20;;;;;;;2.30;2.15;;;18.00;99.90;;;;;;6098169;23;20150;-75
2022/07/14 04:18:46;;;;;;;2.10;2.00;;;18.10;99.90;;;;;;6125377;23;20165;-75
2022/07/14 04:21:11;;;;;;;2.00;1.90;;;18.10;99.90;;;;;;6125815;23;20177;-74
2022/07/14 04:23:38;;;;;;;1.92;1.83;;;18.00;99.90;;;;;;6125862;23;20138;-74
2022/07/14 04:26:05;;;;;;;2.67;2.08;;;18.10;99.90;;;;;;6124311;23;20282;-75
2022/07/14 04:28:31;;;;;;;2.33;2.22;;;18.20;99.90;;;;;;6125324;23;20169;-75
2022/07/14 04:30:57;;;;;;;5.38;2.30;;;18.20;99.90;;;;;;6125694;23;20173;-74
2022/07/14 04:33:23;;;;;;;2.88;2.08;;;18.30;99.90;;;;;;6124940;23;20158;-75
2022/07/14 04:35:49;;;;;;;3.53;2.00;;;18.30;99.90;;;;;;6125551;23;20146;-72
2022/07/14 04:38:15;;;;;;;2.85;2.00;;;18.30;99.90;;;;;;6125280;23;20232;-72
2022/07/14 04:40:52;;;;;;;2.30;2.08;;;18.20;99.90;;;;;;6125094;23;20900;-72
2022/07/14 04:43:18;;;;;;;3.05;2.22;;;18.30;99.90;;;;;;6124086;23;20154;-77
2022/07/14 04:45:45;;;;;;;2.40;2.17;;;18.20;99.90;;;;;;6126653;23;20150;-79
2022/07/14 04:48:11;;;;;;;2.40;2.10;;;18.30;99.90;;;;;;6132548;23;20237;-80
2022/07/14 04:53:21;;;;;;;3.75;2.15;;;18.50;99.90;;;;;;6128079;23;20382;-79
2022/07/14 04:55:47;;;;;;;2.45;2.03;;;18.60;99.90;;;;;;6129087;23;20631;-78
2022/07/14 04:58:13;;;;;;;2.28;2.17;;;18.70;99.90;;;;;;6127003;23;20236;-79
2022/07/14 05:00:38;;;;;;;3.40;1.90;;;18.80;99.90;;;;;;6126226;23;20253;-78
2022/07/14 05:03:04;;;;;;;3.63;2.25;;;18.80;99.90;;;;;;6126014;23;20150;-78
2022/07/14 05:05:29;;;;;;;2.70;2.38;;;18.90;99.90;;;;;;6124876;23;20488;-78
2022/07/14 05:07:55;;;;;;;2.30;2.10;;;18.90;99.90;;;;;;6124807;23;20173;-78
2022/07/14 05:10:21;;;;;;;2.58;2.20;;;19.00;99.90;;;;;;6124838;23;20174;-79
2022/07/14 05:12:46;;;;;;;3.25;2.13;;;19.10;99.90;;;;;;6099928;23;20181;-79
2022/07/14 05:15:12;;;;;;;3.63;2.13;;;19.20;99.90;;;;;;6125098;23;20150;-77
2022/07/14 05:17:38;;;;;;;6.28;2.05;;;19.20;99.90;;;;;;6125464;23;20154;-78
2022/07/14 05:20:04;;;;;;;3.83;2.50;;;19.30;99.90;;;;;;6125447;23;20201;-80
2022/07/14 05:22:41;;;;;;;3.72;2.42;;;19.40;99.90;;;;;;6125715;23;20174;-77
2022/07/14 05:25:08;;;;;;;3.83;2.35;;;19.40;99.90;;;;;;6126592;23;20676;-80
2022/07/14 05:27:33;;;;;;;3.95;2.10;;;19.50;99.90;;;;;;6130842;23;20186;-81
2022/07/14 05:29:59;;;;;;;2.30;2.10;;;19.60;99.90;;;;;;6129351;23;20161;-80
2022/07/14 05:32:25;;;;;;;2.83;1.90;;;19.70;99.90;;;;;;6129378;23;20150;-80
2022/07/14 05:34:50;;;;;;;2.40;2.20;;;19.80;99.90;;;;;;6127323;23;20153;-81
2022/07/14 05:37:16;;;;;;;2.17;2.08;;;19.90;99.90;;;;;;6128926;23;20166;-81
2022/07/14 05:39:41;;;;;;;2.30;2.15;;;19.90;99.90;;;;;;6129582;23;20185;-80
2022/07/14 05:42:07;;;;;;;2.05;1.95;;;20.00;99.90;;;;;;6134443;23;20169;-84
2022/07/14 05:44:34;;;;;;;2.88;2.10;;;20.00;99.90;;;;;;6136414;23;20150;-83
2022/07/14 05:47:00;;;;;;;2.85;2.30;;;20.10;99.90;;;;;;6111391;23;20186;-82
2022/07/14 05:49:26;;;;;;;4.93;2.30;;;20.20;99.90;;;;;;6114153;23;20185;-82
2022/07/14 05:51:51;;;;;;;3.42;2.25;;;20.20;99.90;;;;;;6115674;23;20177;-84
2022/07/14 05:54:17;;;;;;;4.50;2.40;;;20.30;99.90;;;;;;6140310;23;20177;-83
2022/07/14 05:56:42;;;;;;;2.97;2.33;;;20.40;99.90;;;;;;6140603;23;20157;-83
2022/07/14 05:59:08;;;;;;;4.15;2.40;;;20.50;99.90;;;;;;6114079;23;20161;-84
2022/07/14 06:01:33;;;;;;;3.33;2.13;;;20.60;99.90;;;;;;6140808;23;20170;-83
2022/07/14 06:03:59;;;;;;;3.78;2.55;;;20.60;99.90;;;;;;6113527;23;20162;-81
2022/07/14 06:06:25;;;;;;;5.18;2.17;;;20.70;99.90;;;;;;6137131;23;20236;-82
2022/07/14 06:08:51;;;;;;;2.58;2.17;;;20.80;99.90;;;;;;6113445;23;20201;-81
2022/07/14 06:11:16;;;;;;;5.72;2.50;;;20.90;99.90;;;;;;6110865;23;20651;-83
2022/07/14 06:13:45;;;;;;;4.55;2.40;;;20.90;99.90;;;;;;6103071;23;20151;-82
2022/07/14 06:16:11;;;;;;;4.15;2.08;;;21.10;99.90;;;;;;6109273;23;20600;-81
2022/07/14 06:18:37;;;;;;;7.25;2.92;;;21.20;99.90;;;;;;6137309;23;20150;-80
2022/07/14 06:21:07;;;;;;;6.05;2.10;;;21.30;99.90;;;;;;6131002;23;20233;-79
2022/07/14 06:23:33;;;;;;;4.20;2.22;;;21.40;99.90;;;;;;6130308;23;20198;-81
2022/07/14 06:25:59;;;;;;;6.32;2.50;;;21.50;99.90;;;;;;6135506;23;20165;-81
2022/07/14 06:28:26;;;;;;;5.15;2.00;;;21.60;99.90;;;;;;6108547;23;20185;-80
2022/07/14 06:30:52;;;;;;;5.22;2.38;;;21.70;99.90;;;;;;6108848;23;20647;-81
2022/07/14 06:33:17;;;;;;;2.33;2.00;;;21.80;99.90;;;;;;6108721;23;20165;-82
2022/07/14 06:35:43;;;;;;;4.30;1.98;;;21.90;99.90;;;;;;6111991;23;20154;-82
2022/07/14 06:38:08;;;;;;;6.60;2.33;;;22.00;99.90;;;;;;6135758;23;20161;-82
2022/07/14 06:40:34;;;;;;;4.85;1.80;;;22.10;99.90;;;;;;6105069;23;20233;-78
2022/07/14 06:43:00;;;;;;;4.60;1.48;;;22.20;99.90;;;;;;6124225;23;20228;-79
2022/07/14 06:45:25;;;;;;;2.55;2.00;;;22.30;99.90;;;;;;6124616;23;20288;-80
2022/07/14 06:47:51;;;;;;;5.82;2.42;;;22.40;99.90;;;;;;6125033;23;20157;-79
2022/07/14 06:50:17;;;;;;;4.47;1.90;;;22.50;99.90;;;;;;6124515;23;20176;-81
2022/07/14 06:52:42;;;;;;;2.60;2.17;;;22.60;99.90;;;;;;6125942;23;20138;-79
2022/07/14 06:55:09;;;;;;;2.13;1.92;;;22.80;99.90;;;;;;6125819;23;20157;-79
2022/07/14 06:57:35;;;;;;;2.30;1.90;;;22.90;99.90;;;;;;6125992;23;20157;-79
2022/07/14 07:00:03;;;;;;;3.55;1.83;;;23.00;99.90;;;;;;6127105;23;20154;-79
2022/07/14 07:02:29;;;;;;;5.60;2.10;;;23.10;99.90;;;;;;6126035;23;20165;-79
2022/07/14 07:07:39;;;;;;;5.30;2.15;;;23.40;99.90;;;;;;6126361;23;20153;-79
2022/07/14 07:10:05;;;;;;;6.38;2.10;;;23.40;99.80;;;;;;6125206;23;20173;-79
2022/07/14 07:12:30;;;;;;;6.30;2.10;;;23.60;99.60;;;;;;6124704;23;20205;-78
2022/07/14 07:14:56;;;;;;;3.17;1.65;;;23.70;99.10;;;;;;6124627;23;20154;-79
2022/07/14 07:17:22;;;;;;;7.50;2.03;;;23.80;98.90;;;;;;6098069;23;20212;-75
2022/07/14 07:19:47;;;;;;;2.63;2.08;;;23.90;98.00;;;;;;6125254;23;20165;-76
2022/07/14 07:22:13;;;;;;;3.03;2.05;;;24.00;97.70;;;;;;6126205;23;20182;-76
2022/07/14 07:24:39;;;;;;;4.40;1.85;;;24.10;96.70;;;;;;6100468;23;20218;-76
2022/07/14 07:27:05;;;;;;;5.93;2.47;;;24.20;96.30;;;;;;6125002;23;20166;-76
2022/07/14 07:29:30;;;;;;;3.47;2.00;;;24.30;96.20;;;;;;6125330;23;20174;-76
2022/07/14 07:31:56;;;;;;;4.85;2.10;;;24.30;95.60;;;;;;6098224;23;20253;-76
2022/07/14 07:34:21;;;;;;;1.60;1.48;;;24.50;95.40;;;;;;6126092;23;20765;-76
2022/07/14 07:36:47;;;;;;;6.57;1.90;;;24.60;94.90;;;;;;6125550;23;20152;-76
2022/07/14 07:39:13;;;;;;;3.15;2.35;;;24.70;95.00;;;;;;6124258;23;20523;-76
2022/07/14 07:41:39;;;;;;;4.22;2.42;;;24.80;95.00;;;;;;6124764;23;20213;-76
2022/07/14 07:44:05;;;;;;;4.00;2.38;;;24.90;95.00;;;;;;6124804;23;20157;-75
2022/07/14 07:46:31;;;;;;;5.10;1.85;;;25.00;93.60;;;;;;6126200;23;20483;-77
2022/07/14 07:48:56;;;;;;;2.80;2.00;;;25.10;93.80;;;;;;6100501;23;20228;-76
2022/07/14 07:51:22;;;;;;;5.70;2.05;;;25.20;93.70;;;;;;6126824;23;20181;-75
2022/07/14 07:53:47;;;;;;;3.78;2.03;;;25.30;93.30;;;;;;6124552;23;20150;-75
2022/07/14 07:56:13;;;;;;;1.80;1.65;;;25.40;92.40;;;;;;6099501;23;20154;-72
2022/07/14 07:58:39;;;;;;;3.30;1.90;;;25.40;91.40;;;;;;6125259;23;20157;-71
2022/07/14 08:01:04;;;;;;;2.17;1.73;;;25.50;91.80;;;;;;6125359;23;20174;-71
2022/07/14 08:03:30;;;;;;;2.17;1.92;;;25.70;91.40;;;;;;6125825;23;20603;-71
2022/07/14 08:05:56;;;;;;;2.47;1.80;;;25.90;91.10;;;;;;6125640;23;20157;-70
2022/07/14 08:08:21;;;;;;;2.03;1.83;;;26.00;90.80;;;;;;6124812;23;20174;-72
2022/07/14 08:10:47;;;;;;;3.67;1.65;;;26.10;90.60;;;;;;6124868;23;20252;-71
2022/07/14 08:13:13;;;;;;;2.33;2.00;;;26.20;90.10;;;;;;6124801;23;20225;-71
2022/07/14 08:15:39;;;;;;;2.42;1.75;;;26.30;88.50;;;;;;6125292;23;20149;-70
2022/07/14 08:18:05;;;;;;;4.07;1.80;;;26.40;89.10;;;;;;6125436;23;20153;-70
2022/07/14 08:20:31;;;;;;;1.90;1.77;;;26.50;85.10;;;;;;6124497;23;20173;-70
2022/07/14 08:22:58;;;;;;;2.20;1.77;;;26.50;87.00;;;;;;6125476;23;20173;-71
2022/07/14 08:25:24;;;;;;;1.80;1.70;;;26.70;87.50;;;;;;6125333;23;20622;-72
2022/07/14 08:27:50;;;;;;;5.95;1.80;;;26.80;85.60;;;;;;6125029;23;20154;-71
2022/07/14 08:30:16;;;;;;;1.70;1.60;;;26.90;83.80;;;;;;6124778;23;20621;-72
2022/07/14 08:32:47;;;;;;;2.22;2.03;;;27.00;83.90;;;;;;6124802;23;20197;-71
2022/07/14 08:35:15;;;;;;;4.15;1.67;;;27.00;85.10;;;;;;6124941;23;20222;-71
2022/07/14 08:37:42;;;;;;;3.17;2.10;;;27.10;85.90;;;;;;6125552;23;20150;-71
2022/07/14 08:40:10;;;;;;;1.55;1.42;;;27.30;83.50;;;;;;6125104;23;20153;-70
2022/07/14 08:42:38;;;;;;;2.20;1.83;;;27.50;82.90;;;;;;6125174;23;20176;-70
2022/07/14 08:45:08;;;;;;;35.95;6.85;;;27.70;79.90;;;;;;6125238;23;20248;-68
2022/07/14 08:47:36;;;;;;;3.60;1.95;;;27.80;81.30;;;;;;6124880;23;20213;-69
2022/07/14 08:50:07;;;;;;;27.15;5.22;;;28.00;77.70;;;;;;6124783;23;20170;-69
2022/07/14 08:52:33;;;;;;;9.35;2.38;;;28.20;80.10;;;;;;6125002;23;20146;-68
2022/07/14 08:55:00;;;;;;;5.50;2.20;;;28.30;77.40;;;;;;6124490;23;20178;-68
2022/07/14 08:57:26;;;;;;;2.47;1.52;;;28.50;75.70;;;;;;6125022;23;20174;-70
2022/07/14 08:59:52;;;;;;;1.42;1.33;;;28.60;72.60;;;;;;6125061;23;20146;-70
2022/07/14 09:02:18;;;;;;;1.40;1.40;;;28.60;71.90;;;;;;6124758;23;20180;-71
2022/07/14 09:04:45;;;;;;;1.75;1.65;;;28.70;70.00;;;;;;6125213;23;20154;-71
2022/07/14 09:07:12;;;;;;;4.88;1.92;;;28.80;70.20;;;;;;6125212;23;20154;-71
2022/07/14 09:09:38;;;;;;;2.63;1.63;;;29.10;69.90;;;;;;6124689;23;20510;-71
2022/07/14 09:12:05;;;;;;;6.95;2.20;;;29.60;67.30;;;;;;6098275;23;20587;-72
2022/07/14 09:17:26;;;;;;;1.60;1.52;;;30.30;64.50;;;;;;6125152;23;20232;-71
2022/07/14 09:20:09;;;;;;;1.58;1.45;;;30.60;63.00;;;;;;6124579;23;20538;-71
2022/07/14 09:22:42;;;;;;;7.43;2.15;;;30.70;61.60;;;;;;6099057;23;20142;-69
2022/07/14 09:25:15;;;;;;;3.13;1.90;;;30.80;64.60;;;;;;6124882;23;20551;-70
2022/07/14 09:27:41;;;;;;;3.03;1.35;;;31.00;61.20;;;;;;6124624;23;20138;-69
2022/07/14 09:30:10;;;;;;;1.50;1.50;;;31.10;60.20;;;;;;6124173;23;20185;-70
2022/07/14 09:32:56;;;;;;;1.40;1.30;;;31.30;59.90;;;;;;6125036;23;20221;-69
2022/07/14 09:35:26;;;;;;;5.15;1.23;;;31.70;60.50;;;;;;6124409;23;20181;-68
2022/07/14 09:37:54;;;;;;;1.10;1.10;;;32.00;57.30;;;;;;6125040;23;20153;-69
2022/07/14 09:40:28;;;;;;;1.80;1.20;;;32.10;56.90;;;;;;6124471;23;20170;-69
2022/07/14 09:42:57;;;;;;;2.15;1.15;;;32.30;54.70;;;;;;6125066;23;20207;-70
2022/07/14 09:45:28;;;;;;;1.38;1.13;;;32.50;53.70;;;;;;6124193;23;20203;-69
2022/07/14 09:48:11;;;;;;;2.85;1.33;;;33.20;52.50;;;;;;6124896;23;20587;-69
2022/07/14 09:50:47;;;;;;;1.20;1.20;;;34.60;50.20;;;;;;6122885;23;20176;-69
2022/07/14 09:53:23;;;;;;;1.20;1.10;;;35.40;48.20;;;;;;6124045;23;20129;-70
2022/07/14 09:55:53;;;;;;;1.40;1.30;;;35.80;48.00;;;;;;6124876;23;20138;-69
2022/07/14 09:58:31;;;;;;;2.20;1.55;;;37.10;46.10;;;;;;6098818;23;20276;-70
2022/07/14 10:01:01;;;;;;;1.30;1.23;;;38.70;43.70;;;;;;6098324;23;20181;-69
2022/07/14 10:03:28;;;;;;;2.58;1.17;;;40.10;41.50;;;;;;6124716;23;20149;-69
2022/07/14 10:05:55;;;;;;;2.67;1.10;;;41.40;39.40;;;;;;6124856;23;20157;-69
2022/07/14 10:08:30;;;;;;;1.10;1.10;;;42.60;38.00;;;;;;6123887;23;20603;-69
2022/07/14 10:10:58;;;;;;;1.20;1.00;;;42.00;37.10;;;;;;6123815;23;20165;-69
2022/07/14 10:13:24;;;;;;;0.90;0.90;;;41.30;37.00;;;;;;6124331;23;20170;-69
2022/07/14 10:15:52;;;;;;;1.83;1.02;;;40.10;38.50;;;;;;6124479;23;20146;-69
2022/07/14 10:18:20;;;;;;;1.58;0.98;;;40.20;38.60;;;;;;6123544;23;20161;-70
2022/07/14 10:20:48;;;;;;;1.05;1.05;;;41.00;38.80;;;;;;6124262;23;20173;-69
2022/07/14 10:23:15;;;;;;;1.23;1.17;;;41.80;36.80;;;;;;6124591;23;20533;-69
2022/07/14 10:25:41;;;;;;;1.55;0.93;;;42.60;36.20;;;;;;6123731;23;20224;-69
2022/07/14 10:28:08;;;;;;;1.70;1.10;;;43.10;36.00;;;;;;6123634;23;20601;-69
2022/07/14 10:30:41;;;;;;;0.85;0.85;;;43.80;34.60;;;;;;6123922;23;20196;-69
2022/07/14 10:33:35;;;;;;;2.53;1.45;;;44.20;34.50;;;;;;6124736;23;20130;-70
2022/07/14 10:36:10;;;;;;;1.30;1.20;;;44.40;33.70;;;;;;6123358;23;20141;-70
2022/07/14 10:38:50;;;;;;;1.08;1.08;;;44.20;34.40;;;;;;6123199;23;20183;-72
2022/07/14 10:41:40;;;;;;;1.98;1.05;;;44.20;33.80;;;;;;6124082;23;20516;-72
2022/07/14 10:44:20;;;;;;;2.85;1.40;;;44.50;33.10;;;;;;6122774;23;20157;-72
2022/07/14 10:46:47;;;;;;;3.60;1.10;;;44.60;32.80;;;;;;6098053;23;20165;-72
2022/07/14 10:49:15;;;;;;;2.92;1.08;;;44.60;32.00;;;;;;6124088;23;20259;-72
2022/07/14 10:51:51;;;;;;;1.10;1.10;;;44.80;32.70;;;;;;6124404;23;20170;-72
2022/07/14 10:54:24;;;;;;;1.10;1.08;;;44.40;32.10;;;;;;6124151;23;20149;-71
2022/07/14 10:57:06;;;;;;;1.10;1.10;;;43.60;32.10;;;;;;6124545;23;20145;-72
2022/07/14 10:59:34;;;;;;;2.60;0.88;;;43.10;33.10;;;;;;6122768;23;20228;-73
2022/07/14 11:02:12;;;;;;;0.93;0.93;;;43.70;33.30;;;;;;6123569;23;20176;-72
2022/07/14 11:04:59;;;;;;;4.38;1.30;;;44.50;32.00;;;;;;6123823;23;20150;-72
2022/07/14 11:07:46;;;;;;;2.67;1.38;;;45.50;31.40;;;;;;6124153;23;20232;-72
2022/07/14 11:10:18;;;;;;;1.10;1.10;;;45.90;31.20;;;;;;6124007;23;20142;-73
2022/07/14 11:12:59;;;;;;;2.45;1.20;;;46.80;30.00;;;;;;6124054;23;20149;-71
2022/07/14 11:15:55;;;;;;;1.60;1.17;;;46.50;31.10;;;;;;6123861;23;20154;-71
2022/07/14 11:18:34;;;;;;;0.90;0.90;;;47.40;29.40;;;;;;6122333;23;20177;-72
2022/07/14 11:21:19;;;;;;;1.00;1.00;;;47.70;29.40;;;;;;6124106;23;20212;-71
2022/07/14 11:23:50;;;;;;;1.25;1.00;;;47.60;29.60;;;;;;6126153;23;20134;-70
2022/07/14 11:26:41;;;;;;;2.55;0.88;;;47.70;28.60;;;;;;6125897;23;20165;-69
2022/07/14 11:29:11;;;;;;;5.82;1.35;;;47.30;28.90;;;;;;6125738;23;20192;-69
2022/07/14 11:31:48;;;;;;;1.10;1.00;;;46.20;29.80;;;;;;6124791;23;20204;-69
2022/07/14 11:37:14;;;;;;;3.97;1.20;;;46.00;30.00;;;;;;6125006;23;20144;-69
2022/07/14 11:39:44;;;;;;;2.42;0.98;;;45.50;30.00;;;;;;6124024;23;20146;-69
2022/07/14 11:42:17;;;;;;;1.50;0.73;;;45.50;30.20;;;;;;6123739;23;20312;-69
2022/07/14 11:44:43;;;;;;;4.07;1.23;;;45.50;30.00;;;;;;6124879;23;20720;-70
2022/07/14 11:47:29;;;;;;;0.90;0.90;;;45.00;30.80;;;;;;6125233;23;20157;-69
2022/07/14 11:49:58;;;;;;;0.93;0.93;;;45.30;30.20;;;;;;6123967;23;20169;-70
2022/07/14 11:52:33;;;;;;;0.93;0.93;;;45.00;31.00;;;;;;6124868;23;20149;-70
2022/07/14 11:55:01;;;;;;;3.25;1.10;;;45.40;30.20;;;;;;6124813;23;20137;-70
2022/07/14 11:57:27;;;;;;;0.75;0.75;;;45.20;30.40;;;;;;6125200;23;20156;-73
2022/07/14 12:00:00;;;;;;;2.47;1.20;;;45.20;30.00;;;;;;6124063;23;20207;-73
2022/07/14 12:02:26;;;;;;;1.65;1.00;;;45.50;29.30;;;;;;6124922;23;20137;-73
2022/07/14 12:04:53;;;;;;;3.22;1.00;;;45.20;29.50;;;;;;6125296;23;20594;-73
2022/07/14 12:07:21;;;;;;;1.10;1.10;;;44.40;29.70;;;;;;6099201;23;20188;-73
2022/07/14 12:09:47;;;;;;;0.80;0.80;;;44.40;29.60;;;;;;6123538;23;20180;-74
2022/07/14 12:12:15;;;;;;;2.75;1.17;;;44.40;29.70;;;;;;6124850;23;20220;-74
2022/07/14 12:14:49;;;;;;;1.02;0.88;;;44.30;30.00;;;;;;6125211;23;20489;-75
2022/07/14 12:17:17;;;;;;;1.13;1.00;;;44.80;29.10;;;;;;6098097;23;20404;-74
2022/07/14 12:19:43;;;;;;;0.90;0.90;;;44.90;28.90;;;;;;6124213;23;20153;-73
2022/07/14 12:22:10;;;;;;;2.65;1.05;;;44.50;29.00;;;;;;6124608;23;20174;-74
2022/07/14 12:24:36;;;;;;;1.95;1.50;;;44.30;29.00;;;;;;6099202;23;20611;-75
2022/07/14 12:27:05;;;;;;;1.30;1.23;;;44.20;29.20;;;;;;6124166;23;20614;-75
2022/07/14 12:29:32;;;;;;;2.97;0.75;;;44.40;29.00;;;;;;6124679;23;20628;-75
2022/07/14 12:31:59;;;;;;;1.33;1.00;;;44.60;29.10;;;;;;6124816;23;20176;-75
2022/07/14 12:34:26;;;;;;;1.60;0.85;;;45.00;28.30;;;;;;6123636;23;20610;-75
2022/07/14 12:36:55;;;;;;;1.00;0.88;;;44.90;28.20;;;;;;6123719;23;20161;-75
2022/07/14 12:39:21;;;;;;;2.47;1.00;;;45.00;28.30;;;;;;6123951;23;20146;-74
2022/07/14 12:41:47;;;;;;;4.57;1.00;;;45.00;28.30;;;;;;6122491;23;20188;-75
2022/07/14 12:44:13;;;;;;;0.70;0.70;;;45.40;27.80;;;;;;6124710;23;20196;-74
2022/07/14 12:46:40;;;;;;;1.38;0.80;;;46.80;27.40;;;;;;6123639;23;20220;-74
2022/07/14 12:49:07;;;;;;;3.65;1.10;;;48.30;26.70;;;;;;6124388;23;20208;-75
2022/07/14 12:51:33;;;;;;;2.67;1.10;;;48.20;26.70;;;;;;6124908;23;20514;-76
2022/07/14 12:54:19;;;;;;;3.47;0.90;;;46.40;27.50;;;;;;6098503;23;20164;-76
2022/07/14 12:56:48;;;;;;;1.42;1.05;;;44.70;28.10;;;;;;6124551;23;20571;-73
2022/07/14 12:59:35;;;;;;;2.70;1.17;;;43.50;28.80;;;;;;6123435;23;20153;-75
2022/07/14 13:02:05;;;;;;;1.13;1.08;;;42.30;29.90;;;;;;6124056;23;20237;-75
2022/07/14 13:04:38;;;;;;;1.58;1.10;;;41.10;30.50;;;;;;6124208;23;20266;-74